Terminal Aerodrome Forecast
Issued by NWS Central Illinois

Current Version | Previous Version | Text Only | Print | Product List | Glossary On
Versions: 1 2 3 4 5 6 7 8 9 10 11 12 13 14 15 16 17 18 19 20 21 22 23 24 25 26 27 28 29
000
FTUS43 KILX 242336
TAFSPI
TAF
KSPI 242336Z 2500/2524 27015G23KT P6SM BKN025
     FM250600 28015G24KT P6SM OVC015
     FM251100 30016G26KT P6SM OVC025
     FM251600 29015G24KT P6SM BKN045
     FM251800 29015G23KT P6SM SCT080=

USA.gov is the U.S. government's official web portal to all federal, state and local government web resources and services.